METAR Data
IDs: Format: Raw Decoded Include TAF

Data at: 0937 UTC 10 Dec 2022

METAR for:KBIJ (Blakely/Early Cnty, GA, US)
Text:KBIJ 100915Z AUTO 00000KT 1SM BR OVC005 12/11 A3012 RMK AO2
Temperature: 12.0°C ( 54°F)
Dewpoint: 11.0°C ( 52°F) [RH = 94%]
Pressure (altimeter):30.12 inches Hg (1020.1 mb)
Winds:calm
Visibility: 1.00 sm ( 1.61 km)
Ceiling:500 feet AGL
Clouds: overcast cloud deck at 500 feet AGL
Weather:BR (mist)
QC Flag:automated observation with no human augmentation
Text:KBIJ 100855Z AUTO 00000KT 1/4SM FG OVC003 12/11 A3012 RMK AO2
Temperature: 12.0°C ( 54°F)
Dewpoint: 11.0°C ( 52°F) [RH = 94%]
Pressure (altimeter):30.12 inches Hg (1020.1 mb)
Winds:calm
Visibility: 0.25 sm ( 0.40 km)
Ceiling:300 feet AGL
Clouds: overcast cloud deck at 300 feet AGL
Weather:FG (fog)
QC Flag:automated observation with no human augmentation
Text:KBIJ 100835Z AUTO 00000KT 1/4SM FG OVC003 12/12 A3012 RMK AO2
Temperature: 12.0°C ( 54°F)
Dewpoint: 12.0°C ( 54°F) [RH = 100%]
Pressure (altimeter):30.12 inches Hg (1020.1 mb)
Winds:calm
Visibility: 0.25 sm ( 0.40 km)
Ceiling:300 feet AGL
Clouds: overcast cloud deck at 300 feet AGL
Weather:FG (fog)
QC Flag:automated observation with no human augmentation
Text:KBIJ 100815Z AUTO 00000KT 1/4SM FG OVC003 12/12 A3012 RMK AO2
Temperature: 12.0°C ( 54°F)
Dewpoint: 12.0°C ( 54°F) [RH = 100%]
Pressure (altimeter):30.12 inches Hg (1020.1 mb)
Winds:calm
Visibility: 0.25 sm ( 0.40 km)
Ceiling:300 feet AGL
Clouds: overcast cloud deck at 300 feet AGL
Weather:FG (fog)
QC Flag:automated observation with no human augmentation
Text:KBIJ 100755Z AUTO 00000KT 3/4SM BR OVC003 13/12 A3012 RMK AO2
Temperature: 13.0°C ( 55°F)
Dewpoint: 12.0°C ( 54°F) [RH = 94%]
Pressure (altimeter):30.12 inches Hg (1020.1 mb)
Winds:calm
Visibility: 0.75 sm ( 1.21 km)
Ceiling:300 feet AGL
Clouds: overcast cloud deck at 300 feet AGL
Weather:BR (mist)
QC Flag:automated observation with no human augmentation
Text:KBIJ 100735Z AUTO 00000KT 3/4SM BR OVC005 13/12 A3012 RMK AO2
Temperature: 13.0°C ( 55°F)
Dewpoint: 12.0°C ( 54°F) [RH = 94%]
Pressure (altimeter):30.12 inches Hg (1020.1 mb)
Winds:calm
Visibility: 0.75 sm ( 1.21 km)
Ceiling:500 feet AGL
Clouds: overcast cloud deck at 500 feet AGL
Weather:BR (mist)
QC Flag:automated observation with no human augmentation
Text:KBIJ 100715Z AUTO 00000KT 1SM BR OVC005 13/12 A3012 RMK AO2 VIS 1/2V2 1/2
Temperature: 13.0°C ( 55°F)
Dewpoint: 12.0°C ( 54°F) [RH = 94%]
Pressure (altimeter):30.12 inches Hg (1020.1 mb)
Winds:calm
Visibility: 1.00 sm ( 1.61 km)
Ceiling:500 feet AGL
Clouds: overcast cloud deck at 500 feet AGL
Weather:BR (mist)
QC Flag:automated observation with no human augmentation
Text:KBIJ 100655Z AUTO 00000KT 1/2SM FG OVC005 13/12 A3012 RMK AO2
Temperature: 13.0°C ( 55°F)
Dewpoint: 12.0°C ( 54°F) [RH = 94%]
Pressure (altimeter):30.12 inches Hg (1020.1 mb)
Winds:calm
Visibility: 0.50 sm ( 0.80 km)
Ceiling:500 feet AGL
Clouds: overcast cloud deck at 500 feet AGL
Weather:FG (fog)
QC Flag:automated observation with no human augmentation
Text:KBIJ 100635Z AUTO 00000KT 7SM CLR 13/12 A3012 RMK AO2
Temperature: 13.0°C ( 55°F)
Dewpoint: 12.0°C ( 54°F) [RH = 94%]
Pressure (altimeter):30.12 inches Hg (1020.1 mb)
Winds:calm
Visibility: 7 sm ( 11 km)
Ceiling:at least 12,000 feet AGL
Clouds:sky clear below 12,000 feet AGL
QC Flag:automated observation with no human augmentation
Text:KBIJ 100615Z AUTO 00000KT 10SM CLR 12/12 A3012 RMK AO2
Temperature: 12.0°C ( 54°F)
Dewpoint: 12.0°C ( 54°F) [RH = 100%]
Pressure (altimeter):30.12 inches Hg (1020.1 mb)
Winds:calm
Visibility:10 or more sm (16+ km)
Ceiling:at least 12,000 feet AGL
Clouds:sky clear below 12,000 feet AGL
QC Flag:automated observation with no human augmentation
Text:KBIJ 100555Z AUTO 00000KT 7SM CLR 13/12 A3012 RMK AO2
Temperature: 13.0°C ( 55°F)
Dewpoint: 12.0°C ( 54°F) [RH = 94%]
Pressure (altimeter):30.12 inches Hg (1020.1 mb)
Winds:calm
Visibility: 7 sm ( 11 km)
Ceiling:at least 12,000 feet AGL
Clouds:sky clear below 12,000 feet AGL
QC Flag:automated observation with no human augmentation
Text:KBIJ 100535Z AUTO 00000KT 7SM CLR 13/12 A3013 RMK AO2
Temperature: 13.0°C ( 55°F)
Dewpoint: 12.0°C ( 54°F) [RH = 94%]
Pressure (altimeter):30.13 inches Hg (1020.4 mb)
Winds:calm
Visibility: 7 sm ( 11 km)
Ceiling:at least 12,000 feet AGL
Clouds:sky clear below 12,000 feet AGL
QC Flag:automated observation with no human augmentation
Text:KBIJ 100515Z AUTO 00000KT 5SM BR CLR 13/12 A3013 RMK AO2
Temperature: 13.0°C ( 55°F)
Dewpoint: 12.0°C ( 54°F) [RH = 94%]
Pressure (altimeter):30.13 inches Hg (1020.4 mb)
Winds:calm
Visibility: 5 sm ( 8 km)
Ceiling:at least 12,000 feet AGL
Clouds:sky clear below 12,000 feet AGL
Weather:BR (mist)
QC Flag:automated observation with no human augmentation
Text:KBIJ 100455Z AUTO 00000KT 4SM BR CLR 13/13 A3013 RMK AO2
Temperature: 13.0°C ( 55°F)
Dewpoint: 13.0°C ( 55°F) [RH = 100%]
Pressure (altimeter):30.13 inches Hg (1020.4 mb)
Winds:calm
Visibility: 4 sm ( 6 km)
Ceiling:at least 12,000 feet AGL
Clouds:sky clear below 12,000 feet AGL
Weather:BR (mist)
QC Flag:automated observation with no human augmentation
Text:KBIJ 100435Z AUTO 00000KT 4SM BR CLR 13/13 A3013 RMK AO2
Temperature: 13.0°C ( 55°F)
Dewpoint: 13.0°C ( 55°F) [RH = 100%]
Pressure (altimeter):30.13 inches Hg (1020.4 mb)
Winds:calm
Visibility: 4 sm ( 6 km)
Ceiling:at least 12,000 feet AGL
Clouds:sky clear below 12,000 feet AGL
Weather:BR (mist)
QC Flag:automated observation with no human augmentation
Text:KBIJ 100415Z AUTO 00000KT 2 1/2SM BR SCT004 13/13 A3013 RMK AO2 VIS 1V4 LTG DSNT SW
Temperature: 13.0°C ( 55°F)
Dewpoint: 13.0°C ( 55°F) [RH = 100%]
Pressure (altimeter):30.13 inches Hg (1020.4 mb)
Winds:calm
Visibility: 2.50 sm ( 4.02 km)
Ceiling:at least 12,000 feet AGL
Clouds: scattered clouds at 400 feet AGL
Weather:BR (mist)
QC Flag:automated observation with no human augmentation
Text:KBIJ 100355Z AUTO 00000KT 5SM BR SCT004 14/13 A3013 RMK AO2
Temperature: 14.0°C ( 57°F)
Dewpoint: 13.0°C ( 55°F) [RH = 94%]
Pressure (altimeter):30.13 inches Hg (1020.4 mb)
Winds:calm
Visibility: 5 sm ( 8 km)
Ceiling:at least 12,000 feet AGL
Clouds: scattered clouds at 400 feet AGL
Weather:BR (mist)
QC Flag:automated observation with no human augmentation
Text:KBIJ 100335Z AUTO 00000KT 4SM BR SCT005 14/13 A3012 RMK AO2
Temperature: 14.0°C ( 57°F)
Dewpoint: 13.0°C ( 55°F) [RH = 94%]
Pressure (altimeter):30.12 inches Hg (1020.1 mb)
Winds:calm
Visibility: 4 sm ( 6 km)
Ceiling:at least 12,000 feet AGL
Clouds: scattered clouds at 500 feet AGL
Weather:BR (mist)
QC Flag:automated observation with no human augmentation
Text:KBIJ 100315Z AUTO 00000KT 5SM BR SCT003 14/13 A3012 RMK AO2
Temperature: 14.0°C ( 57°F)
Dewpoint: 13.0°C ( 55°F) [RH = 94%]
Pressure (altimeter):30.12 inches Hg (1020.1 mb)
Winds:calm
Visibility: 5 sm ( 8 km)
Ceiling:at least 12,000 feet AGL
Clouds: scattered clouds at 300 feet AGL
Weather:BR (mist)
QC Flag:automated observation with no human augmentation
Text:KBIJ 100255Z AUTO 00000KT 4SM BR CLR 15/13 A3012 RMK AO2
Temperature: 15.0°C ( 59°F)
Dewpoint: 13.0°C ( 55°F) [RH = 88%]
Pressure (altimeter):30.12 inches Hg (1020.1 mb)
Winds:calm
Visibility: 4 sm ( 6 km)
Ceiling:at least 12,000 feet AGL
Clouds:sky clear below 12,000 feet AGL
Weather:BR (mist)
QC Flag:automated observation with no human augmentation
Text:KBIJ 100235Z AUTO 00000KT 5SM BR CLR 15/14 A3012 RMK AO2
Temperature: 15.0°C ( 59°F)
Dewpoint: 14.0°C ( 57°F) [RH = 94%]
Pressure (altimeter):30.12 inches Hg (1020.1 mb)
Winds:calm
Visibility: 5 sm ( 8 km)
Ceiling:at least 12,000 feet AGL
Clouds:sky clear below 12,000 feet AGL
Weather:BR (mist)
QC Flag:automated observation with no human augmentation
Text:KBIJ 100215Z AUTO 00000KT 5SM BR CLR 15/14 A3012 RMK AO2
Temperature: 15.0°C ( 59°F)
Dewpoint: 14.0°C ( 57°F) [RH = 94%]
Pressure (altimeter):30.12 inches Hg (1020.1 mb)
Winds:calm
Visibility: 5 sm ( 8 km)
Ceiling:at least 12,000 feet AGL
Clouds:sky clear below 12,000 feet AGL
Weather:BR (mist)
QC Flag:automated observation with no human augmentation
Text:KBIJ 100155Z AUTO 00000KT 5SM BR CLR 15/14 A3012 RMK AO2
Temperature: 15.0°C ( 59°F)
Dewpoint: 14.0°C ( 57°F) [RH = 94%]
Pressure (altimeter):30.12 inches Hg (1020.1 mb)
Winds:calm
Visibility: 5 sm ( 8 km)
Ceiling:at least 12,000 feet AGL
Clouds:sky clear below 12,000 feet AGL
Weather:BR (mist)
QC Flag:automated observation with no human augmentation
Text:KBIJ 100135Z AUTO 00000KT 5SM BR CLR 15/14 A3012 RMK AO2
Temperature: 15.0°C ( 59°F)
Dewpoint: 14.0°C ( 57°F) [RH = 94%]
Pressure (altimeter):30.12 inches Hg (1020.1 mb)
Winds:calm
Visibility: 5 sm ( 8 km)
Ceiling:at least 12,000 feet AGL
Clouds:sky clear below 12,000 feet AGL
Weather:BR (mist)
QC Flag:automated observation with no human augmentation
Text:KBIJ 100115Z AUTO 00000KT 4SM BR CLR 16/15 A3012 RMK AO2
Temperature: 16.0°C ( 61°F)
Dewpoint: 15.0°C ( 59°F) [RH = 94%]
Pressure (altimeter):30.12 inches Hg (1020.1 mb)
Winds:calm
Visibility: 4 sm ( 6 km)
Ceiling:at least 12,000 feet AGL
Clouds:sky clear below 12,000 feet AGL
Weather:BR (mist)
QC Flag:automated observation with no human augmentation
Text:KBIJ 100055Z AUTO 00000KT 5SM BR CLR 16/15 A3012 RMK AO2
Temperature: 16.0°C ( 61°F)
Dewpoint: 15.0°C ( 59°F) [RH = 94%]
Pressure (altimeter):30.12 inches Hg (1020.1 mb)
Winds:calm
Visibility: 5 sm ( 8 km)
Ceiling:at least 12,000 feet AGL
Clouds:sky clear below 12,000 feet AGL
Weather:BR (mist)
QC Flag:automated observation with no human augmentation
Text:KBIJ 100035Z AUTO 00000KT 7SM SCT075 16/15 A3011 RMK AO2
Temperature: 16.0°C ( 61°F)
Dewpoint: 15.0°C ( 59°F) [RH = 94%]
Pressure (altimeter):30.11 inches Hg (1019.7 mb)
Winds:calm
Visibility: 7 sm ( 11 km)
Ceiling:at least 12,000 feet AGL
Clouds: scattered clouds at 7500 feet AGL
QC Flag:automated observation with no human augmentation
Text:KBIJ 100015Z AUTO 00000KT 7SM SCT075 17/15 A3011 RMK AO2
Temperature: 17.0°C ( 63°F)
Dewpoint: 15.0°C ( 59°F) [RH = 88%]
Pressure (altimeter):30.11 inches Hg (1019.7 mb)
Winds:calm
Visibility: 7 sm ( 11 km)
Ceiling:at least 12,000 feet AGL
Clouds: scattered clouds at 7500 feet AGL
QC Flag:automated observation with no human augmentation
Text:KBIJ 092355Z AUTO 00000KT 10SM CLR 17/16 A3011 RMK AO2
Temperature: 17.0°C ( 63°F)
Dewpoint: 16.0°C ( 61°F) [RH = 94%]
Pressure (altimeter):30.11 inches Hg (1019.7 mb)
Winds:calm
Visibility:10 or more sm (16+ km)
Ceiling:at least 12,000 feet AGL
Clouds:sky clear below 12,000 feet AGL
QC Flag:automated observation with no human augmentation
Text:KBIJ 092335Z AUTO 00000KT 10SM CLR 17/16 A3010 RMK AO2
Temperature: 17.0°C ( 63°F)
Dewpoint: 16.0°C ( 61°F) [RH = 94%]
Pressure (altimeter):30.10 inches Hg (1019.4 mb)
Winds:calm
Visibility:10 or more sm (16+ km)
Ceiling:at least 12,000 feet AGL
Clouds:sky clear below 12,000 feet AGL
QC Flag:automated observation with no human augmentation
Text:KBIJ 092315Z AUTO 00000KT 10SM CLR 18/16 A3010 RMK AO2
Temperature: 18.0°C ( 64°F)
Dewpoint: 16.0°C ( 61°F) [RH = 88%]
Pressure (altimeter):30.10 inches Hg (1019.4 mb)
Winds:calm
Visibility:10 or more sm (16+ km)
Ceiling:at least 12,000 feet AGL
Clouds:sky clear below 12,000 feet AGL
QC Flag:automated observation with no human augmentation
Text:KBIJ 092255Z AUTO 00000KT 10SM CLR 19/16 A3010 RMK AO2
Temperature: 19.0°C ( 66°F)
Dewpoint: 16.0°C ( 61°F) [RH = 83%]
Pressure (altimeter):30.10 inches Hg (1019.4 mb)
Winds:calm
Visibility:10 or more sm (16+ km)
Ceiling:at least 12,000 feet AGL
Clouds:sky clear below 12,000 feet AGL
QC Flag:automated observation with no human augmentation
Text:KBIJ 092235Z AUTO 00000KT 10SM CLR 20/16 A3010 RMK AO2
Temperature: 20.0°C ( 68°F)
Dewpoint: 16.0°C ( 61°F) [RH = 78%]
Pressure (altimeter):30.10 inches Hg (1019.4 mb)
Winds:calm
Visibility:10 or more sm (16+ km)
Ceiling:at least 12,000 feet AGL
Clouds:sky clear below 12,000 feet AGL
QC Flag:automated observation with no human augmentation
Text:KBIJ 092215Z AUTO 00000KT 10SM CLR 22/16 A3010 RMK AO2
Temperature: 22.0°C ( 72°F)
Dewpoint: 16.0°C ( 61°F) [RH = 69%]
Pressure (altimeter):30.10 inches Hg (1019.4 mb)
Winds:calm
Visibility:10 or more sm (16+ km)
Ceiling:at least 12,000 feet AGL
Clouds:sky clear below 12,000 feet AGL
QC Flag:automated observation with no human augmentation
Text:KBIJ 092155Z AUTO 00000KT 10SM CLR 23/16 A3009 RMK AO2
Temperature: 23.0°C ( 73°F)
Dewpoint: 16.0°C ( 61°F) [RH = 65%]
Pressure (altimeter):30.09 inches Hg (1019.0 mb)
Winds:calm
Visibility:10 or more sm (16+ km)
Ceiling:at least 12,000 feet AGL
Clouds:sky clear below 12,000 feet AGL
QC Flag:automated observation with no human augmentation
Text:KBIJ 092135Z AUTO 00000KT 10SM CLR 23/16 A3009 RMK AO2
Temperature: 23.0°C ( 73°F)
Dewpoint: 16.0°C ( 61°F) [RH = 65%]
Pressure (altimeter):30.09 inches Hg (1019.0 mb)
Winds:calm
Visibility:10 or more sm (16+ km)
Ceiling:at least 12,000 feet AGL
Clouds:sky clear below 12,000 feet AGL
QC Flag:automated observation with no human augmentation
Text:KBIJ 092115Z AUTO 00000KT 10SM SCT060 23/16 A3009 RMK AO2
Temperature: 23.0°C ( 73°F)
Dewpoint: 16.0°C ( 61°F) [RH = 65%]
Pressure (altimeter):30.09 inches Hg (1019.0 mb)
Winds:calm
Visibility:10 or more sm (16+ km)
Ceiling:at least 12,000 feet AGL
Clouds: scattered clouds at 6000 feet AGL
QC Flag:automated observation with no human augmentation
Text:KBIJ 092055Z AUTO 27003KT 10SM BKN060 23/16 A3009 RMK AO2
Temperature: 23.0°C ( 73°F)
Dewpoint: 16.0°C ( 61°F) [RH = 65%]
Pressure (altimeter):30.09 inches Hg (1019.0 mb)
Winds:from the W (270 degrees) at 3 MPH (3 knots; 1.5 m/s)
Visibility:10 or more sm (16+ km)
Ceiling:6000 feet AGL
Clouds: broken clouds at 6000 feet AGL
QC Flag:automated observation with no human augmentation
Text:KBIJ 092035Z AUTO 00000KT 10SM SCT047 OVC060 23/16 A3009 RMK AO2
Temperature: 23.0°C ( 73°F)
Dewpoint: 16.0°C ( 61°F) [RH = 65%]
Pressure (altimeter):30.09 inches Hg (1019.0 mb)
Winds:calm
Visibility:10 or more sm (16+ km)
Ceiling:6000 feet AGL
Clouds: scattered clouds at 4700 feet AGL, overcast cloud deck at 6000 feet AGL
QC Flag:automated observation with no human augmentation
Text:KBIJ 092015Z AUTO 29004KT 10SM OVC050 23/16 A3009 RMK AO2
Temperature: 23.0°C ( 73°F)
Dewpoint: 16.0°C ( 61°F) [RH = 65%]
Pressure (altimeter):30.09 inches Hg (1019.0 mb)
Winds:from the WNW (290 degrees) at 5 MPH (4 knots; 2.1 m/s)
Visibility:10 or more sm (16+ km)
Ceiling:5000 feet AGL
Clouds: overcast cloud deck at 5000 feet AGL
QC Flag:automated observation with no human augmentation
Text:KBIJ 091955Z AUTO 30003KT 10SM OVC050 23/16 A3010 RMK AO2
Temperature: 23.0°C ( 73°F)
Dewpoint: 16.0°C ( 61°F) [RH = 65%]
Pressure (altimeter):30.10 inches Hg (1019.4 mb)
Winds:from the WNW (300 degrees) at 3 MPH (3 knots; 1.5 m/s)
Visibility:10 or more sm (16+ km)
Ceiling:5000 feet AGL
Clouds: overcast cloud deck at 5000 feet AGL
QC Flag:automated observation with no human augmentation
Text:KBIJ 091935Z AUTO 29003KT 10SM OVC050 23/16 A3010 RMK AO2
Temperature: 23.0°C ( 73°F)
Dewpoint: 16.0°C ( 61°F) [RH = 65%]
Pressure (altimeter):30.10 inches Hg (1019.4 mb)
Winds:from the WNW (290 degrees) at 3 MPH (3 knots; 1.5 m/s)
Visibility:10 or more sm (16+ km)
Ceiling:5000 feet AGL
Clouds: overcast cloud deck at 5000 feet AGL
QC Flag:automated observation with no human augmentation
Text:KBIJ 091915Z AUTO 00000KT 10SM OVC050 23/16 A3010 RMK AO2
Temperature: 23.0°C ( 73°F)
Dewpoint: 16.0°C ( 61°F) [RH = 65%]
Pressure (altimeter):30.10 inches Hg (1019.4 mb)
Winds:calm
Visibility:10 or more sm (16+ km)
Ceiling:5000 feet AGL
Clouds: overcast cloud deck at 5000 feet AGL
QC Flag:automated observation with no human augmentation
Text:KBIJ 091855Z AUTO 00000KT 10SM OVC050 23/16 A3010 RMK AO2
Temperature: 23.0°C ( 73°F)
Dewpoint: 16.0°C ( 61°F) [RH = 65%]
Pressure (altimeter):30.10 inches Hg (1019.4 mb)
Winds:calm
Visibility:10 or more sm (16+ km)
Ceiling:5000 feet AGL
Clouds: overcast cloud deck at 5000 feet AGL
QC Flag:automated observation with no human augmentation
Text:KBIJ 091835Z AUTO 33003KT 10SM OVC050 23/16 A3011 RMK AO2
Temperature: 23.0°C ( 73°F)
Dewpoint: 16.0°C ( 61°F) [RH = 65%]
Pressure (altimeter):30.11 inches Hg (1019.7 mb)
Winds:from the NNW (330 degrees) at 3 MPH (3 knots; 1.5 m/s)
Visibility:10 or more sm (16+ km)
Ceiling:5000 feet AGL
Clouds: overcast cloud deck at 5000 feet AGL
QC Flag:automated observation with no human augmentation
Text:KBIJ 091815Z AUTO 26003KT 10SM OVC050 22/16 A3012 RMK AO2
Temperature: 22.0°C ( 72°F)
Dewpoint: 16.0°C ( 61°F) [RH = 69%]
Pressure (altimeter):30.12 inches Hg (1020.1 mb)
Winds:from the W (260 degrees) at 3 MPH (3 knots; 1.5 m/s)
Visibility:10 or more sm (16+ km)
Ceiling:5000 feet AGL
Clouds: overcast cloud deck at 5000 feet AGL
QC Flag:automated observation with no human augmentation
Text:KBIJ 091755Z AUTO 00000KT 10SM OVC048 22/16 A3013 RMK AO2
Temperature: 22.0°C ( 72°F)
Dewpoint: 16.0°C ( 61°F) [RH = 69%]
Pressure (altimeter):30.13 inches Hg (1020.4 mb)
Winds:calm
Visibility:10 or more sm (16+ km)
Ceiling:4800 feet AGL
Clouds: overcast cloud deck at 4800 feet AGL
QC Flag:automated observation with no human augmentation
Text:KBIJ 091735Z AUTO 00000KT 10SM OVC048 22/16 A3014 RMK AO2
Temperature: 22.0°C ( 72°F)
Dewpoint: 16.0°C ( 61°F) [RH = 69%]
Pressure (altimeter):30.14 inches Hg (1020.7 mb)
Winds:calm
Visibility:10 or more sm (16+ km)
Ceiling:4800 feet AGL
Clouds: overcast cloud deck at 4800 feet AGL
QC Flag:automated observation with no human augmentation
Text:KBIJ 091715Z AUTO 00000KT 10SM OVC048 21/16 A3015 RMK AO2
Temperature: 21.0°C ( 70°F)
Dewpoint: 16.0°C ( 61°F) [RH = 73%]
Pressure (altimeter):30.15 inches Hg (1021.1 mb)
Winds:calm
Visibility:10 or more sm (16+ km)
Ceiling:4800 feet AGL
Clouds: overcast cloud deck at 4800 feet AGL
QC Flag:automated observation with no human augmentation
Text:KBIJ 091655Z AUTO 00000KT 10SM OVC048 21/16 A3016 RMK AO2
Temperature: 21.0°C ( 70°F)
Dewpoint: 16.0°C ( 61°F) [RH = 73%]
Pressure (altimeter):30.16 inches Hg (1021.4 mb)
Winds:calm
Visibility:10 or more sm (16+ km)
Ceiling:4800 feet AGL
Clouds: overcast cloud deck at 4800 feet AGL
QC Flag:automated observation with no human augmentation
Text:KBIJ 091635Z AUTO 31003KT 10SM OVC050 21/16 A3017 RMK AO2
Temperature: 21.0°C ( 70°F)
Dewpoint: 16.0°C ( 61°F) [RH = 73%]
Pressure (altimeter):30.17 inches Hg (1021.8 mb)
Winds:from the NW (310 degrees) at 3 MPH (3 knots; 1.5 m/s)
Visibility:10 or more sm (16+ km)
Ceiling:5000 feet AGL
Clouds: overcast cloud deck at 5000 feet AGL
QC Flag:automated observation with no human augmentation
Text:KBIJ 091615Z AUTO 30005KT 10SM OVC050 21/16 A3017 RMK AO2
Temperature: 21.0°C ( 70°F)
Dewpoint: 16.0°C ( 61°F) [RH = 73%]
Pressure (altimeter):30.17 inches Hg (1021.8 mb)
Winds:from the WNW (300 degrees) at 6 MPH (5 knots; 2.6 m/s)
Visibility:10 or more sm (16+ km)
Ceiling:5000 feet AGL
Clouds: overcast cloud deck at 5000 feet AGL
QC Flag:automated observation with no human augmentation
Text:KBIJ 091555Z AUTO 00000KT 10SM OVC050 21/17 A3018 RMK AO2
Temperature: 21.0°C ( 70°F)
Dewpoint: 17.0°C ( 63°F) [RH = 78%]
Pressure (altimeter):30.18 inches Hg (1022.1 mb)
Winds:calm
Visibility:10 or more sm (16+ km)
Ceiling:5000 feet AGL
Clouds: overcast cloud deck at 5000 feet AGL
QC Flag:automated observation with no human augmentation
Text:KBIJ 091535Z AUTO 00000KT 10SM BKN050 19/17 A3018 RMK AO2
Temperature: 19.0°C ( 66°F)
Dewpoint: 17.0°C ( 63°F) [RH = 88%]
Pressure (altimeter):30.18 inches Hg (1022.1 mb)
Winds:calm
Visibility:10 or more sm (16+ km)
Ceiling:5000 feet AGL
Clouds: broken clouds at 5000 feet AGL
QC Flag:automated observation with no human augmentation
Text:KBIJ 091515Z AUTO 00000KT 10SM SCT048 18/17 A3018 RMK AO2
Temperature: 18.0°C ( 64°F)
Dewpoint: 17.0°C ( 63°F) [RH = 94%]
Pressure (altimeter):30.18 inches Hg (1022.1 mb)
Winds:calm
Visibility:10 or more sm (16+ km)
Ceiling:at least 12,000 feet AGL
Clouds: scattered clouds at 4800 feet AGL
QC Flag:automated observation with no human augmentation
Text:KBIJ 091455Z AUTO 00000KT 7SM BKN048 17/16 A3018 RMK AO2
Temperature: 17.0°C ( 63°F)
Dewpoint: 16.0°C ( 61°F) [RH = 94%]
Pressure (altimeter):30.18 inches Hg (1022.1 mb)
Winds:calm
Visibility: 7 sm ( 11 km)
Ceiling:4800 feet AGL
Clouds: broken clouds at 4800 feet AGL
QC Flag:automated observation with no human augmentation
Text:KBIJ 091435Z AUTO 00000KT 7SM OVC050 16/15 A3018 RMK AO2
Temperature: 16.0°C ( 61°F)
Dewpoint: 15.0°C ( 59°F) [RH = 94%]
Pressure (altimeter):30.18 inches Hg (1022.1 mb)
Winds:calm
Visibility: 7 sm ( 11 km)
Ceiling:5000 feet AGL
Clouds: overcast cloud deck at 5000 feet AGL
QC Flag:automated observation with no human augmentation
Text:KBIJ 091415Z AUTO 00000KT 5SM BR SCT050 15/14 A3017 RMK AO2
Temperature: 15.0°C ( 59°F)
Dewpoint: 14.0°C ( 57°F) [RH = 94%]
Pressure (altimeter):30.17 inches Hg (1021.8 mb)
Winds:calm
Visibility: 5 sm ( 8 km)
Ceiling:at least 12,000 feet AGL
Clouds: scattered clouds at 5000 feet AGL
Weather:BR (mist)
QC Flag:automated observation with no human augmentation
Text:KBIJ 091355Z AUTO 00000KT 4SM BR BKN001 13/12 A3017 RMK AO2
Temperature: 13.0°C ( 55°F)
Dewpoint: 12.0°C ( 54°F) [RH = 94%]
Pressure (altimeter):30.17 inches Hg (1021.8 mb)
Winds:calm
Visibility: 4 sm ( 6 km)
Ceiling:100 feet AGL
Clouds: broken clouds at 100 feet AGL
Weather:BR (mist)
QC Flag:automated observation with no human augmentation
Text:KBIJ 091335Z AUTO 00000KT M1/4SM FG OVC001 12/11 A3017 RMK AO2
Temperature: 12.0°C ( 54°F)
Dewpoint: 11.0°C ( 52°F) [RH = 94%]
Pressure (altimeter):30.17 inches Hg (1021.8 mb)
Winds:calm
Visibility: 0.25 sm ( 0.40 km)
Ceiling:100 feet AGL
Clouds: overcast cloud deck at 100 feet AGL
Weather:FG (fog)
QC Flag:automated observation with no human augmentation
Text:KBIJ 091315Z AUTO 00000KT 1/2SM FG OVC001 11/11 A3016 RMK AO2
Temperature: 11.0°C ( 52°F)
Dewpoint: 11.0°C ( 52°F) [RH = 100%]
Pressure (altimeter):30.16 inches Hg (1021.4 mb)
Winds:calm
Visibility: 0.50 sm ( 0.80 km)
Ceiling:100 feet AGL
Clouds: overcast cloud deck at 100 feet AGL
Weather:FG (fog)
QC Flag:automated observation with no human augmentation
Text:KBIJ 091255Z AUTO 00000KT 1/2SM FG OVC003 11/10 A3016 RMK AO2
Temperature: 11.0°C ( 52°F)
Dewpoint: 10.0°C ( 50°F) [RH = 94%]
Pressure (altimeter):30.16 inches Hg (1021.4 mb)
Winds:calm
Visibility: 0.50 sm ( 0.80 km)
Ceiling:300 feet AGL
Clouds: overcast cloud deck at 300 feet AGL
Weather:FG (fog)
QC Flag:automated observation with no human augmentation
Text:KBIJ 091235Z AUTO 00000KT 1/2SM FG OVC003 11/10 A3015 RMK AO2
Temperature: 11.0°C ( 52°F)
Dewpoint: 10.0°C ( 50°F) [RH = 94%]
Pressure (altimeter):30.15 inches Hg (1021.1 mb)
Winds:calm
Visibility: 0.50 sm ( 0.80 km)
Ceiling:300 feet AGL
Clouds: overcast cloud deck at 300 feet AGL
Weather:FG (fog)
QC Flag:automated observation with no human augmentation
Text:KBIJ 091215Z AUTO 00000KT 7SM BKN003 10/10 A3015 RMK AO2
Temperature: 10.0°C ( 50°F)
Dewpoint: 10.0°C ( 50°F) [RH = 100%]
Pressure (altimeter):30.15 inches Hg (1021.1 mb)
Winds:calm
Visibility: 7 sm ( 11 km)
Ceiling:300 feet AGL
Clouds: broken clouds at 300 feet AGL
QC Flag:automated observation with no human augmentation
Text:KBIJ 091155Z AUTO 00000KT 4SM BR SCT003 10/10 A3015 RMK AO2
Temperature: 10.0°C ( 50°F)
Dewpoint: 10.0°C ( 50°F) [RH = 100%]
Pressure (altimeter):30.15 inches Hg (1021.1 mb)
Winds:calm
Visibility: 4 sm ( 6 km)
Ceiling:at least 12,000 feet AGL
Clouds: scattered clouds at 300 feet AGL
Weather:BR (mist)
QC Flag:automated observation with no human augmentation
Text:KBIJ 091135Z AUTO 00000KT 5SM BR SCT003 10/10 A3014 RMK AO2
Temperature: 10.0°C ( 50°F)
Dewpoint: 10.0°C ( 50°F) [RH = 100%]
Pressure (altimeter):30.14 inches Hg (1020.7 mb)
Winds:calm
Visibility: 5 sm ( 8 km)
Ceiling:at least 12,000 feet AGL
Clouds: scattered clouds at 300 feet AGL
Weather:BR (mist)
QC Flag:automated observation with no human augmentation
Text:KBIJ 091115Z AUTO 00000KT 3/4SM BR OVC003 10/10 A3014 RMK AO2
Temperature: 10.0°C ( 50°F)
Dewpoint: 10.0°C ( 50°F) [RH = 100%]
Pressure (altimeter):30.14 inches Hg (1020.7 mb)
Winds:calm
Visibility: 0.75 sm ( 1.21 km)
Ceiling:300 feet AGL
Clouds: overcast cloud deck at 300 feet AGL
Weather:BR (mist)
QC Flag:automated observation with no human augmentation
Text:KBIJ 091055Z AUTO 00000KT 3/4SM BR OVC001 10/10 A3014 RMK AO2
Temperature: 10.0°C ( 50°F)
Dewpoint: 10.0°C ( 50°F) [RH = 100%]
Pressure (altimeter):30.14 inches Hg (1020.7 mb)
Winds:calm
Visibility: 0.75 sm ( 1.21 km)
Ceiling:100 feet AGL
Clouds: overcast cloud deck at 100 feet AGL
Weather:BR (mist)
QC Flag:automated observation with no human augmentation
Text:KBIJ 091035Z AUTO 00000KT 1/2SM FG OVC001 11/10 A3014 RMK AO2
Temperature: 11.0°C ( 52°F)
Dewpoint: 10.0°C ( 50°F) [RH = 94%]
Pressure (altimeter):30.14 inches Hg (1020.7 mb)
Winds:calm
Visibility: 0.50 sm ( 0.80 km)
Ceiling:100 feet AGL
Clouds: overcast cloud deck at 100 feet AGL
Weather:FG (fog)
QC Flag:automated observation with no human augmentation
Text:KBIJ 091015Z AUTO 00000KT 1 1/2SM BR OVC001 10/10 A3014 RMK AO2
Temperature: 10.0°C ( 50°F)
Dewpoint: 10.0°C ( 50°F) [RH = 100%]
Pressure (altimeter):30.14 inches Hg (1020.7 mb)
Winds:calm
Visibility: 1.50 sm ( 2.41 km)
Ceiling:100 feet AGL
Clouds: overcast cloud deck at 100 feet AGL
Weather:BR (mist)
QC Flag:automated observation with no human augmentation
Text:KBIJ 090955Z AUTO 00000KT 1/4SM FG OVC001 10/10 A3014 RMK AO2
Temperature: 10.0°C ( 50°F)
Dewpoint: 10.0°C ( 50°F) [RH = 100%]
Pressure (altimeter):30.14 inches Hg (1020.7 mb)
Winds:calm
Visibility: 0.25 sm ( 0.40 km)
Ceiling:100 feet AGL
Clouds: overcast cloud deck at 100 feet AGL
Weather:FG (fog)
QC Flag:automated observation with no human augmentation
Text:KBIJ 090935Z AUTO 00000KT 1SM BR OVC001 11/10 A3014 RMK AO2 VIS 1/2V2 1/2
Temperature: 11.0°C ( 52°F)
Dewpoint: 10.0°C ( 50°F) [RH = 94%]
Pressure (altimeter):30.14 inches Hg (1020.7 mb)
Winds:calm
Visibility: 1.00 sm ( 1.61 km)
Ceiling:100 feet AGL
Clouds: overcast cloud deck at 100 feet AGL
Weather:BR (mist)
QC Flag:automated observation with no human augmentation
Text:KBIJ 090915Z AUTO 00000KT 1SM BR OVC001 11/10 A3014 RMK AO2
Temperature: 11.0°C ( 52°F)
Dewpoint: 10.0°C ( 50°F) [RH = 94%]
Pressure (altimeter):30.14 inches Hg (1020.7 mb)
Winds:calm
Visibility: 1.00 sm ( 1.61 km)
Ceiling:100 feet AGL
Clouds: overcast cloud deck at 100 feet AGL
Weather:BR (mist)
QC Flag:automated observation with no human augmentation
Text:KBIJ 090855Z AUTO 00000KT 3/4SM BR OVC001 11/10 A3015 RMK AO2
Temperature: 11.0°C ( 52°F)
Dewpoint: 10.0°C ( 50°F) [RH = 94%]
Pressure (altimeter):30.15 inches Hg (1021.1 mb)
Winds:calm
Visibility: 0.75 sm ( 1.21 km)
Ceiling:100 feet AGL
Clouds: overcast cloud deck at 100 feet AGL
Weather:BR (mist)
QC Flag:automated observation with no human augmentation
Text:KBIJ 090835Z AUTO 00000KT 1/2SM FG OVC001 11/10 A3015 RMK AO2
Temperature: 11.0°C ( 52°F)
Dewpoint: 10.0°C ( 50°F) [RH = 94%]
Pressure (altimeter):30.15 inches Hg (1021.1 mb)
Winds:calm
Visibility: 0.50 sm ( 0.80 km)
Ceiling:100 feet AGL
Clouds: overcast cloud deck at 100 feet AGL
Weather:FG (fog)
QC Flag:automated observation with no human augmentation
Text:KBIJ 090815Z AUTO 00000KT 1/4SM FG OVC001 11/10 A3016 RMK AO2
Temperature: 11.0°C ( 52°F)
Dewpoint: 10.0°C ( 50°F) [RH = 94%]
Pressure (altimeter):30.16 inches Hg (1021.4 mb)
Winds:calm
Visibility: 0.25 sm ( 0.40 km)
Ceiling:100 feet AGL
Clouds: overcast cloud deck at 100 feet AGL
Weather:FG (fog)
QC Flag:automated observation with no human augmentation
Text:KBIJ 090755Z AUTO 00000KT 1/4SM FG OVC001 11/10 A3016 RMK AO2
Temperature: 11.0°C ( 52°F)
Dewpoint: 10.0°C ( 50°F) [RH = 94%]
Pressure (altimeter):30.16 inches Hg (1021.4 mb)
Winds:calm
Visibility: 0.25 sm ( 0.40 km)
Ceiling:100 feet AGL
Clouds: overcast cloud deck at 100 feet AGL
Weather:FG (fog)
QC Flag:automated observation with no human augmentation
Text:KBIJ 090735Z AUTO 00000KT 1/2SM FG OVC001 11/11 A3016 RMK AO2
Temperature: 11.0°C ( 52°F)
Dewpoint: 11.0°C ( 52°F) [RH = 100%]
Pressure (altimeter):30.16 inches Hg (1021.4 mb)
Winds:calm
Visibility: 0.50 sm ( 0.80 km)
Ceiling:100 feet AGL
Clouds: overcast cloud deck at 100 feet AGL
Weather:FG (fog)
QC Flag:automated observation with no human augmentation
Text:KBIJ 090715Z AUTO 00000KT 3SM BR OVC003 12/11 A3016 RMK AO2
Temperature: 12.0°C ( 54°F)
Dewpoint: 11.0°C ( 52°F) [RH = 94%]
Pressure (altimeter):30.16 inches Hg (1021.4 mb)
Winds:calm
Visibility: 3 sm ( 5 km)
Ceiling:300 feet AGL
Clouds: overcast cloud deck at 300 feet AGL
Weather:BR (mist)
QC Flag:automated observation with no human augmentation
Text:KBIJ 090655Z AUTO 00000KT 5SM BR SCT003 12/11 A3016 RMK AO2
Temperature: 12.0°C ( 54°F)
Dewpoint: 11.0°C ( 52°F) [RH = 94%]
Pressure (altimeter):30.16 inches Hg (1021.4 mb)
Winds:calm
Visibility: 5 sm ( 8 km)
Ceiling:at least 12,000 feet AGL
Clouds: scattered clouds at 300 feet AGL
Weather:BR (mist)
QC Flag:automated observation with no human augmentation
Text:KBIJ 090635Z AUTO 00000KT 1 1/4SM BR BKN003 12/11 A3016 RMK AO2
Temperature: 12.0°C ( 54°F)
Dewpoint: 11.0°C ( 52°F) [RH = 94%]
Pressure (altimeter):30.16 inches Hg (1021.4 mb)
Winds:calm
Visibility: 1.25 sm ( 2.01 km)
Ceiling:300 feet AGL
Clouds: broken clouds at 300 feet AGL
Weather:BR (mist)
QC Flag:automated observation with no human augmentation
Text:KBIJ 090615Z AUTO 00000KT 1/2SM FG OVC003 12/11 A3016 RMK AO2
Temperature: 12.0°C ( 54°F)
Dewpoint: 11.0°C ( 52°F) [RH = 94%]
Pressure (altimeter):30.16 inches Hg (1021.4 mb)
Winds:calm
Visibility: 0.50 sm ( 0.80 km)
Ceiling:300 feet AGL
Clouds: overcast cloud deck at 300 feet AGL
Weather:FG (fog)
QC Flag:automated observation with no human augmentation
Text:KBIJ 090555Z AUTO 00000KT 1/2SM FG OVC003 12/11 A3017 RMK AO2
Temperature: 12.0°C ( 54°F)
Dewpoint: 11.0°C ( 52°F) [RH = 94%]
Pressure (altimeter):30.17 inches Hg (1021.8 mb)
Winds:calm
Visibility: 0.50 sm ( 0.80 km)
Ceiling:300 feet AGL
Clouds: overcast cloud deck at 300 feet AGL
Weather:FG (fog)
QC Flag:automated observation with no human augmentation
Text:KBIJ 090535Z AUTO 00000KT 1/4SM FG OVC003 12/11 A3017 RMK AO2
Temperature: 12.0°C ( 54°F)
Dewpoint: 11.0°C ( 52°F) [RH = 94%]
Pressure (altimeter):30.17 inches Hg (1021.8 mb)
Winds:calm
Visibility: 0.25 sm ( 0.40 km)
Ceiling:300 feet AGL
Clouds: overcast cloud deck at 300 feet AGL
Weather:FG (fog)
QC Flag:automated observation with no human augmentation
Text:KBIJ 090515Z AUTO 00000KT 1/2SM FG OVC003 13/12 A3017 RMK AO2
Temperature: 13.0°C ( 55°F)
Dewpoint: 12.0°C ( 54°F) [RH = 94%]
Pressure (altimeter):30.17 inches Hg (1021.8 mb)
Winds:calm
Visibility: 0.50 sm ( 0.80 km)
Ceiling:300 feet AGL
Clouds: overcast cloud deck at 300 feet AGL
Weather:FG (fog)
QC Flag:automated observation with no human augmentation
Text:KBIJ 090455Z AUTO 00000KT 1 1/4SM BR BKN003 13/12 A3017 RMK AO2
Temperature: 13.0°C ( 55°F)
Dewpoint: 12.0°C ( 54°F) [RH = 94%]
Pressure (altimeter):30.17 inches Hg (1021.8 mb)
Winds:calm
Visibility: 1.25 sm ( 2.01 km)
Ceiling:300 feet AGL
Clouds: broken clouds at 300 feet AGL
Weather:BR (mist)
QC Flag:automated observation with no human augmentation
Text:KBIJ 090435Z AUTO 00000KT 5SM BR CLR 13/12 A3018 RMK AO2
Temperature: 13.0°C ( 55°F)
Dewpoint: 12.0°C ( 54°F) [RH = 94%]
Pressure (altimeter):30.18 inches Hg (1022.1 mb)
Winds:calm
Visibility: 5 sm ( 8 km)
Ceiling:at least 12,000 feet AGL
Clouds:sky clear below 12,000 feet AGL
Weather:BR (mist)
QC Flag:automated observation with no human augmentation
Text:KBIJ 090415Z AUTO 00000KT 10SM CLR 13/12 A3018 RMK AO2
Temperature: 13.0°C ( 55°F)
Dewpoint: 12.0°C ( 54°F) [RH = 94%]
Pressure (altimeter):30.18 inches Hg (1022.1 mb)
Winds:calm
Visibility:10 or more sm (16+ km)
Ceiling:at least 12,000 feet AGL
Clouds:sky clear below 12,000 feet AGL
QC Flag:automated observation with no human augmentation
Text:KBIJ 090355Z AUTO 00000KT 7SM CLR 14/13 A3018 RMK AO2
Temperature: 14.0°C ( 57°F)
Dewpoint: 13.0°C ( 55°F) [RH = 94%]
Pressure (altimeter):30.18 inches Hg (1022.1 mb)
Winds:calm
Visibility: 7 sm ( 11 km)
Ceiling:at least 12,000 feet AGL
Clouds:sky clear below 12,000 feet AGL
QC Flag:automated observation with no human augmentation
Text:KBIJ 090335Z AUTO 00000KT 10SM CLR 14/13 A3018 RMK AO2
Temperature: 14.0°C ( 57°F)
Dewpoint: 13.0°C ( 55°F) [RH = 94%]
Pressure (altimeter):30.18 inches Hg (1022.1 mb)
Winds:calm
Visibility:10 or more sm (16+ km)
Ceiling:at least 12,000 feet AGL
Clouds:sky clear below 12,000 feet AGL
QC Flag:automated observation with no human augmentation
Text:KBIJ 090315Z AUTO 00000KT 10SM CLR 14/13 A3018 RMK AO2
Temperature: 14.0°C ( 57°F)
Dewpoint: 13.0°C ( 55°F) [RH = 94%]
Pressure (altimeter):30.18 inches Hg (1022.1 mb)
Winds:calm
Visibility:10 or more sm (16+ km)
Ceiling:at least 12,000 feet AGL
Clouds:sky clear below 12,000 feet AGL
QC Flag:automated observation with no human augmentation
Text:KBIJ 090255Z AUTO 00000KT 10SM CLR 15/13 A3018 RMK AO2
Temperature: 15.0°C ( 59°F)
Dewpoint: 13.0°C ( 55°F) [RH = 88%]
Pressure (altimeter):30.18 inches Hg (1022.1 mb)
Winds:calm
Visibility:10 or more sm (16+ km)
Ceiling:at least 12,000 feet AGL
Clouds:sky clear below 12,000 feet AGL
QC Flag:automated observation with no human augmentation
Text:KBIJ 090235Z AUTO 00000KT 10SM CLR 15/13 A3018 RMK AO2
Temperature: 15.0°C ( 59°F)
Dewpoint: 13.0°C ( 55°F) [RH = 88%]
Pressure (altimeter):30.18 inches Hg (1022.1 mb)
Winds:calm
Visibility:10 or more sm (16+ km)
Ceiling:at least 12,000 feet AGL
Clouds:sky clear below 12,000 feet AGL
QC Flag:automated observation with no human augmentation
Text:KBIJ 090215Z AUTO 00000KT 10SM CLR 16/14 A3018 RMK AO2
Temperature: 16.0°C ( 61°F)
Dewpoint: 14.0°C ( 57°F) [RH = 88%]
Pressure (altimeter):30.18 inches Hg (1022.1 mb)
Winds:calm
Visibility:10 or more sm (16+ km)
Ceiling:at least 12,000 feet AGL
Clouds:sky clear below 12,000 feet AGL
QC Flag:automated observation with no human augmentation
Text:KBIJ 090155Z AUTO 00000KT 10SM CLR 16/14 A3019 RMK AO2
Temperature: 16.0°C ( 61°F)
Dewpoint: 14.0°C ( 57°F) [RH = 88%]
Pressure (altimeter):30.19 inches Hg (1022.4 mb)
Winds:calm
Visibility:10 or more sm (16+ km)
Ceiling:at least 12,000 feet AGL
Clouds:sky clear below 12,000 feet AGL
QC Flag:automated observation with no human augmentation
Text:KBIJ 090135Z AUTO 00000KT 10SM CLR 16/15 A3019 RMK AO2
Temperature: 16.0°C ( 61°F)
Dewpoint: 15.0°C ( 59°F) [RH = 94%]
Pressure (altimeter):30.19 inches Hg (1022.4 mb)
Winds:calm
Visibility:10 or more sm (16+ km)
Ceiling:at least 12,000 feet AGL
Clouds:sky clear below 12,000 feet AGL
QC Flag:automated observation with no human augmentation
Text:KBIJ 090115Z AUTO 00000KT 10SM CLR 17/14 A3018 RMK AO2
Temperature: 17.0°C ( 63°F)
Dewpoint: 14.0°C ( 57°F) [RH = 82%]
Pressure (altimeter):30.18 inches Hg (1022.1 mb)
Winds:calm
Visibility:10 or more sm (16+ km)
Ceiling:at least 12,000 feet AGL
Clouds:sky clear below 12,000 feet AGL
QC Flag:automated observation with no human augmentation
Text:KBIJ 090055Z AUTO 00000KT 10SM CLR 17/15 A3018 RMK AO2
Temperature: 17.0°C ( 63°F)
Dewpoint: 15.0°C ( 59°F) [RH = 88%]
Pressure (altimeter):30.18 inches Hg (1022.1 mb)
Winds:calm
Visibility:10 or more sm (16+ km)
Ceiling:at least 12,000 feet AGL
Clouds:sky clear below 12,000 feet AGL
QC Flag:automated observation with no human augmentation
Text:KBIJ 090035Z AUTO 00000KT 10SM CLR 17/15 A3018 RMK AO2
Temperature: 17.0°C ( 63°F)
Dewpoint: 15.0°C ( 59°F) [RH = 88%]
Pressure (altimeter):30.18 inches Hg (1022.1 mb)
Winds:calm
Visibility:10 or more sm (16+ km)
Ceiling:at least 12,000 feet AGL
Clouds:sky clear below 12,000 feet AGL
QC Flag:automated observation with no human augmentation
Text:KBIJ 090015Z AUTO 00000KT 10SM CLR 17/15 A3018 RMK AO2
Temperature: 17.0°C ( 63°F)
Dewpoint: 15.0°C ( 59°F) [RH = 88%]
Pressure (altimeter):30.18 inches Hg (1022.1 mb)
Winds:calm
Visibility:10 or more sm (16+ km)
Ceiling:at least 12,000 feet AGL
Clouds:sky clear below 12,000 feet AGL
QC Flag:automated observation with no human augmentation
Text:KBIJ 082355Z AUTO 00000KT 10SM CLR 17/15 A3018 RMK AO2
Temperature: 17.0°C ( 63°F)
Dewpoint: 15.0°C ( 59°F) [RH = 88%]
Pressure (altimeter):30.18 inches Hg (1022.1 mb)
Winds:calm
Visibility:10 or more sm (16+ km)
Ceiling:at least 12,000 feet AGL
Clouds:sky clear below 12,000 feet AGL
QC Flag:automated observation with no human augmentation
Text:KBIJ 082335Z AUTO 00000KT 10SM CLR 18/15 A3018 RMK AO2
Temperature: 18.0°C ( 64°F)
Dewpoint: 15.0°C ( 59°F) [RH = 83%]
Pressure (altimeter):30.18 inches Hg (1022.1 mb)
Winds:calm
Visibility:10 or more sm (16+ km)
Ceiling:at least 12,000 feet AGL
Clouds:sky clear below 12,000 feet AGL
QC Flag:automated observation with no human augmentation
Text:KBIJ 082315Z AUTO 00000KT 10SM CLR 19/15 A3018 RMK AO2
Temperature: 19.0°C ( 66°F)
Dewpoint: 15.0°C ( 59°F) [RH = 78%]
Pressure (altimeter):30.18 inches Hg (1022.1 mb)
Winds:calm
Visibility:10 or more sm (16+ km)
Ceiling:at least 12,000 feet AGL
Clouds:sky clear below 12,000 feet AGL
QC Flag:automated observation with no human augmentation
Text:KBIJ 082255Z AUTO 00000KT 10SM CLR 21/15 A3018 RMK AO2
Temperature: 21.0°C ( 70°F)
Dewpoint: 15.0°C ( 59°F) [RH = 69%]
Pressure (altimeter):30.18 inches Hg (1022.1 mb)
Winds:calm
Visibility:10 or more sm (16+ km)
Ceiling:at least 12,000 feet AGL
Clouds:sky clear below 12,000 feet AGL
QC Flag:automated observation with no human augmentation
Text:KBIJ 082235Z AUTO 00000KT 10SM CLR 22/15 A3017 RMK AO2
Temperature: 22.0°C ( 72°F)
Dewpoint: 15.0°C ( 59°F) [RH = 65%]
Pressure (altimeter):30.17 inches Hg (1021.8 mb)
Winds:calm
Visibility:10 or more sm (16+ km)
Ceiling:at least 12,000 feet AGL
Clouds:sky clear below 12,000 feet AGL
QC Flag:automated observation with no human augmentation
Text:KBIJ 082215Z AUTO 23003KT 10SM CLR 23/15 A3017 RMK AO2
Temperature: 23.0°C ( 73°F)
Dewpoint: 15.0°C ( 59°F) [RH = 61%]
Pressure (altimeter):30.17 inches Hg (1021.8 mb)
Winds:from the SW (230 degrees) at 3 MPH (3 knots; 1.5 m/s)
Visibility:10 or more sm (16+ km)
Ceiling:at least 12,000 feet AGL
Clouds:sky clear below 12,000 feet AGL
QC Flag:automated observation with no human augmentation
Text:KBIJ 082155Z AUTO 25004KT 10SM CLR 25/15 A3017 RMK AO2
Temperature: 25.0°C ( 77°F)
Dewpoint: 15.0°C ( 59°F) [RH = 54%]
Pressure (altimeter):30.17 inches Hg (1021.8 mb)
Winds:from the WSW (250 degrees) at 5 MPH (4 knots; 2.1 m/s)
Visibility:10 or more sm (16+ km)
Ceiling:at least 12,000 feet AGL
Clouds:sky clear below 12,000 feet AGL
QC Flag:automated observation with no human augmentation